sensor_id;sensor_type;location;lat;lon;timestamp;P1;durP1;ratioP1;P2;durP2;ratioP2
55150;SDS011;41041;43.162;20.538;2023-05-21T00:01:58;17.38;;;8.15;;
55150;SDS011;41041;43.162;20.538;2023-05-21T00:04:24;11.35;;;7.00;;
55150;SDS011;41041;43.162;20.538;2023-05-21T00:06:56;12.50;;;6.82;;
55150;SDS011;41041;43.162;20.538;2023-05-21T00:09:22;14.77;;;7.00;;
55150;SDS011;41041;43.162;20.538;2023-05-21T00:11:48;12.48;;;7.38;;
55150;SDS011;41041;43.162;20.538;2023-05-21T00:14:15;13.40;;;7.57;;
55150;SDS011;41041;43.162;20.538;2023-05-21T00:16:41;9.23;;;6.75;;
55150;SDS011;41041;43.162;20.538;2023-05-21T00:19:08;11.68;;;7.45;;
55150;SDS011;41041;43.162;20.538;2023-05-21T00:21:35;12.38;;;7.18;;
55150;SDS011;41041;43.162;20.538;2023-05-21T00:24:02;11.02;;;6.93;;
55150;SDS011;41041;43.162;20.538;2023-05-21T00:26:28;11.98;;;6.82;;
55150;SDS011;41041;43.162;20.538;2023-05-21T00:28:54;11.20;;;6.35;;
55150;SDS011;41041;43.162;20.538;2023-05-21T00:31:20;10.27;;;6.53;;
55150;SDS011;41041;43.162;20.538;2023-05-21T00:33:46;9.25;;;6.82;;
55150;SDS011;41041;43.162;20.538;2023-05-21T00:36:12;12.48;;;6.80;;
55150;SDS011;41041;43.162;20.538;2023-05-21T00:38:40;13.10;;;6.50;;
55150;SDS011;41041;43.162;20.538;2023-05-21T00:41:09;10.63;;;6.85;;
55150;SDS011;41041;43.162;20.538;2023-05-21T00:43:36;10.02;;;6.97;;
55150;SDS011;41041;43.162;20.538;2023-05-21T00:46:06;9.77;;;7.00;;
55150;SDS011;41041;43.162;20.538;2023-05-21T00:48:32;10.63;;;7.38;;
55150;SDS011;41041;43.162;20.538;2023-05-21T00:50:59;14.98;;;9.77;;
55150;SDS011;41041;43.162;20.538;2023-05-21T00:53:25;16.58;;;8.27;;
55150;SDS011;41041;43.162;20.538;2023-05-21T00:55:54;14.70;;;8.77;;
55150;SDS011;41041;43.162;20.538;2023-05-21T00:58:20;16.23;;;8.90;;
55150;SDS011;41041;43.162;20.538;2023-05-21T01:00:47;12.07;;;7.90;;
55150;SDS011;41041;43.162;20.538;2023-05-21T01:03:13;14.93;;;8.18;;
55150;SDS011;41041;43.162;20.538;2023-05-21T01:05:40;12.50;;;8.05;;
55150;SDS011;41041;43.162;20.538;2023-05-21T01:08:09;15.30;;;7.68;;
55150;SDS011;41041;43.162;20.538;2023-05-21T01:10:51;11.32;;;6.40;;
55150;SDS011;41041;43.162;20.538;2023-05-21T01:13:18;10.50;;;6.32;;
55150;SDS011;41041;43.162;20.538;2023-05-21T01:15:47;10.88;;;6.32;;
55150;SDS011;41041;43.162;20.538;2023-05-21T01:18:14;8.90;;;6.15;;
55150;SDS011;41041;43.162;20.538;2023-05-21T01:20:40;10.25;;;5.90;;
55150;SDS011;41041;43.162;20.538;2023-05-21T01:23:14;10.63;;;6.18;;
55150;SDS011;41041;43.162;20.538;2023-05-21T01:25:43;16.30;;;6.30;;
55150;SDS011;41041;43.162;20.538;2023-05-21T01:28:10;11.02;;;6.07;;
55150;SDS011;41041;43.162;20.538;2023-05-21T01:30:37;10.35;;;6.13;;
55150;SDS011;41041;43.162;20.538;2023-05-21T01:41:10;8.80;;;6.05;;
55150;SDS011;41041;43.162;20.538;2023-05-21T01:43:38;13.80;;;6.22;;
55150;SDS011;41041;43.162;20.538;2023-05-21T01:46:08;12.32;;;5.97;;
55150;SDS011;41041;43.162;20.538;2023-05-21T01:48:36;14.20;;;5.93;;
55150;SDS011;41041;43.162;20.538;2023-05-21T01:51:03;11.10;;;6.60;;
55150;SDS011;41041;43.162;20.538;2023-05-21T01:53:30;15.30;;;5.75;;
55150;SDS011;41041;43.162;20.538;2023-05-21T01:55:56;11.10;;;6.03;;
55150;SDS011;41041;43.162;20.538;2023-05-21T01:58:23;13.43;;;6.57;;
55150;SDS011;41041;43.162;20.538;2023-05-21T02:00:49;15.05;;;6.63;;
55150;SDS011;41041;43.162;20.538;2023-05-21T02:03:16;12.82;;;6.10;;
55150;SDS011;41041;43.162;20.538;2023-05-21T02:05:42;13.95;;;6.28;;
55150;SDS011;41041;43.162;20.538;2023-05-21T02:08:08;11.85;;;6.47;;
55150;SDS011;41041;43.162;20.538;2023-05-21T02:10:35;10.80;;;5.63;;
55150;SDS011;41041;43.162;20.538;2023-05-21T02:13:01;11.38;;;6.18;;
55150;SDS011;41041;43.162;20.538;2023-05-21T02:15:27;9.80;;;5.85;;
55150;SDS011;41041;43.162;20.538;2023-05-21T02:17:54;9.93;;;5.93;;
55150;SDS011;41041;43.162;20.538;2023-05-21T02:20:20;8.90;;;5.15;;
55150;SDS011;41041;43.162;20.538;2023-05-21T02:22:47;9.02;;;6.03;;
55150;SDS011;41041;43.162;20.538;2023-05-21T02:25:14;10.43;;;6.05;;
55150;SDS011;41041;43.162;20.538;2023-05-21T02:27:41;9.25;;;5.88;;
55150;SDS011;41041;43.162;20.538;2023-05-21T02:30:08;9.70;;;6.13;;
55150;SDS011;41041;43.162;20.538;2023-05-21T02:32:34;8.98;;;6.20;;
55150;SDS011;41041;43.162;20.538;2023-05-21T02:35:02;14.27;;;5.97;;
55150;SDS011;41041;43.162;20.538;2023-05-21T02:37:28;8.55;;;5.85;;
55150;SDS011;41041;43.162;20.538;2023-05-21T02:42:50;9.70;;;5.68;;
55150;SDS011;41041;43.162;20.538;2023-05-21T02:45:16;8.13;;;5.10;;
55150;SDS011;41041;43.162;20.538;2023-05-21T02:47:42;10.30;;;5.15;;
55150;SDS011;41041;43.162;20.538;2023-05-21T02:50:08;11.75;;;5.50;;
55150;SDS011;41041;43.162;20.538;2023-05-21T02:52:35;10.20;;;5.03;;
55150;SDS011;41041;43.162;20.538;2023-05-21T02:55:01;7.47;;;5.32;;
55150;SDS011;41041;43.162;20.538;2023-05-21T02:57:27;8.00;;;5.43;;
55150;SDS011;41041;43.162;20.538;2023-05-21T02:59:53;10.63;;;5.55;;
55150;SDS011;41041;43.162;20.538;2023-05-21T03:02:19;7.88;;;5.18;;
55150;SDS011;41041;43.162;20.538;2023-05-21T03:04:45;7.15;;;5.32;;
55150;SDS011;41041;43.162;20.538;2023-05-21T03:07:15;9.07;;;5.50;;
55150;SDS011;41041;43.162;20.538;2023-05-21T03:12:09;13.93;;;5.50;;
55150;SDS011;41041;43.162;20.538;2023-05-21T03:14:35;12.90;;;4.97;;
55150;SDS011;41041;43.162;20.538;2023-05-21T03:17:02;10.23;;;5.30;;
55150;SDS011;41041;43.162;20.538;2023-05-21T03:19:39;10.23;;;5.53;;
55150;SDS011;41041;43.162;20.538;2023-05-21T03:22:05;9.88;;;5.30;;
55150;SDS011;41041;43.162;20.538;2023-05-21T03:27:14;11.05;;;5.57;;
55150;SDS011;41041;43.162;20.538;2023-05-21T03:29:40;13.40;;;5.45;;
55150;SDS011;41041;43.162;20.538;2023-05-21T03:34:48;14.13;;;5.60;;
55150;SDS011;41041;43.162;20.538;2023-05-21T03:37:14;9.05;;;5.07;;
55150;SDS011;41041;43.162;20.538;2023-05-21T03:39:40;17.30;;;5.40;;
55150;SDS011;41041;43.162;20.538;2023-05-21T03:42:06;11.25;;;5.18;;
55150;SDS011;41041;43.162;20.538;2023-05-21T03:44:32;9.27;;;5.20;;
55150;SDS011;41041;43.162;20.538;2023-05-21T03:46:58;8.63;;;4.78;;
55150;SDS011;41041;43.162;20.538;2023-05-21T03:49:25;13.65;;;5.60;;
55150;SDS011;41041;43.162;20.538;2023-05-21T03:51:51;8.18;;;4.78;;
55150;SDS011;41041;43.162;20.538;2023-05-21T03:54:20;10.43;;;5.05;;
55150;SDS011;41041;43.162;20.538;2023-05-21T03:56:46;11.50;;;5.55;;
55150;SDS011;41041;43.162;20.538;2023-05-21T03:59:12;8.75;;;5.30;;
55150;SDS011;41041;43.162;20.538;2023-05-21T04:04:41;10.82;;;5.25;;
55150;SDS011;41041;43.162;20.538;2023-05-21T04:07:09;15.05;;;5.72;;
55150;SDS011;41041;43.162;20.538;2023-05-21T04:09:39;13.80;;;5.60;;
55150;SDS011;41041;43.162;20.538;2023-05-21T04:12:06;10.57;;;5.68;;
55150;SDS011;41041;43.162;20.538;2023-05-21T04:14:32;8.82;;;5.25;;
55150;SDS011;41041;43.162;20.538;2023-05-21T04:16:58;14.32;;;5.05;;
55150;SDS011;41041;43.162;20.538;2023-05-21T04:19:24;8.02;;;5.13;;
55150;SDS011;41041;43.162;20.538;2023-05-21T04:21:50;11.90;;;5.57;;
55150;SDS011;41041;43.162;20.538;2023-05-21T04:24:16;11.27;;;5.53;;
55150;SDS011;41041;43.162;20.538;2023-05-21T04:26:42;15.38;;;6.15;;
55150;SDS011;41041;43.162;20.538;2023-05-21T04:29:17;9.48;;;5.88;;
55150;SDS011;41041;43.162;20.538;2023-05-21T04:31:45;9.27;;;5.47;;
55150;SDS011;41041;43.162;20.538;2023-05-21T04:34:11;11.05;;;6.05;;
55150;SDS011;41041;43.162;20.538;2023-05-21T04:36:37;13.32;;;6.10;;
55150;SDS011;41041;43.162;20.538;2023-05-21T04:39:03;11.45;;;5.78;;
55150;SDS011;41041;43.162;20.538;2023-05-21T04:41:31;12.02;;;5.30;;
55150;SDS011;41041;43.162;20.538;2023-05-21T04:43:57;9.85;;;5.10;;
55150;SDS011;41041;43.162;20.538;2023-05-21T04:46:23;11.02;;;5.03;;
55150;SDS011;41041;43.162;20.538;2023-05-21T04:48:53;8.77;;;5.22;;
55150;SDS011;41041;43.162;20.538;2023-05-21T04:51:20;10.38;;;5.28;;
55150;SDS011;41041;43.162;20.538;2023-05-21T04:53:50;14.30;;;5.43;;
55150;SDS011;41041;43.162;20.538;2023-05-21T04:56:18;14.88;;;5.32;;
55150;SDS011;41041;43.162;20.538;2023-05-21T04:58:45;13.52;;;5.60;;
55150;SDS011;41041;43.162;20.538;2023-05-21T05:01:14;15.18;;;5.70;;
55150;SDS011;41041;43.162;20.538;2023-05-21T05:03:40;11.18;;;6.00;;
55150;SDS011;41041;43.162;20.538;2023-05-21T05:06:06;13.10;;;5.95;;
55150;SDS011;41041;43.162;20.538;2023-05-21T05:08:33;18.48;;;6.07;;
55150;SDS011;41041;43.162;20.538;2023-05-21T05:10:59;16.02;;;6.32;;
55150;SDS011;41041;43.162;20.538;2023-05-21T05:13:25;14.57;;;5.60;;
55150;SDS011;41041;43.162;20.538;2023-05-21T05:15:51;11.48;;;6.30;;
55150;SDS011;41041;43.162;20.538;2023-05-21T05:18:18;12.25;;;7.20;;
55150;SDS011;41041;43.162;20.538;2023-05-21T05:20:44;14.98;;;6.82;;
55150;SDS011;41041;43.162;20.538;2023-05-21T05:23:10;12.43;;;7.45;;
55150;SDS011;41041;43.162;20.538;2023-05-21T05:25:37;13.02;;;6.97;;
55150;SDS011;41041;43.162;20.538;2023-05-21T05:28:03;13.85;;;7.03;;
55150;SDS011;41041;43.162;20.538;2023-05-21T05:30:29;13.23;;;7.30;;
55150;SDS011;41041;43.162;20.538;2023-05-21T05:32:55;18.83;;;7.13;;
55150;SDS011;41041;43.162;20.538;2023-05-21T05:35:21;16.80;;;7.82;;
55150;SDS011;41041;43.162;20.538;2023-05-21T05:37:48;12.85;;;7.93;;
55150;SDS011;41041;43.162;20.538;2023-05-21T05:40:14;15.70;;;8.13;;
55150;SDS011;41041;43.162;20.538;2023-05-21T05:42:41;20.17;;;8.85;;
55150;SDS011;41041;43.162;20.538;2023-05-21T05:45:07;13.80;;;8.30;;
55150;SDS011;41041;43.162;20.538;2023-05-21T05:47:33;16.70;;;8.93;;
55150;SDS011;41041;43.162;20.538;2023-05-21T05:49:59;18.83;;;9.10;;
55150;SDS011;41041;43.162;20.538;2023-05-21T05:52:25;23.73;;;9.65;;
55150;SDS011;41041;43.162;20.538;2023-05-21T05:54:51;15.85;;;9.02;;
55150;SDS011;41041;43.162;20.538;2023-05-21T05:57:18;29.40;;;9.23;;
55150;SDS011;41041;43.162;20.538;2023-05-21T05:59:43;15.25;;;8.00;;
55150;SDS011;41041;43.162;20.538;2023-05-21T06:02:09;17.95;;;7.75;;
55150;SDS011;41041;43.162;20.538;2023-05-21T06:04:36;17.33;;;8.45;;
55150;SDS011;41041;43.162;20.538;2023-05-21T06:07:02;15.60;;;7.88;;
55150;SDS011;41041;43.162;20.538;2023-05-21T06:09:30;17.92;;;8.45;;
55150;SDS011;41041;43.162;20.538;2023-05-21T06:11:56;18.65;;;7.72;;
55150;SDS011;41041;43.162;20.538;2023-05-21T06:14:22;15.65;;;7.68;;
55150;SDS011;41041;43.162;20.538;2023-05-21T06:19:21;19.52;;;7.38;;
55150;SDS011;41041;43.162;20.538;2023-05-21T06:21:47;15.50;;;7.35;;
55150;SDS011;41041;43.162;20.538;2023-05-21T06:24:20;13.00;;;6.82;;
55150;SDS011;41041;43.162;20.538;2023-05-21T06:26:46;10.95;;;6.50;;
55150;SDS011;41041;43.162;20.538;2023-05-21T06:29:13;18.00;;;6.57;;
55150;SDS011;41041;43.162;20.538;2023-05-21T06:31:41;17.10;;;6.28;;
55150;SDS011;41041;43.162;20.538;2023-05-21T06:34:07;15.57;;;7.03;;
55150;SDS011;41041;43.162;20.538;2023-05-21T06:36:34;15.88;;;6.68;;
55150;SDS011;41041;43.162;20.538;2023-05-21T06:42:07;11.57;;;6.05;;
55150;SDS011;41041;43.162;20.538;2023-05-21T06:44:33;12.25;;;6.20;;
55150;SDS011;41041;43.162;20.538;2023-05-21T06:46:59;12.68;;;6.00;;
55150;SDS011;41041;43.162;20.538;2023-05-21T06:52:29;16.25;;;8.02;;
55150;SDS011;41041;43.162;20.538;2023-05-21T06:54:55;16.65;;;8.68;;
55150;SDS011;41041;43.162;20.538;2023-05-21T06:57:22;15.60;;;8.35;;
55150;SDS011;41041;43.162;20.538;2023-05-21T07:02:17;17.17;;;8.18;;
55150;SDS011;41041;43.162;20.538;2023-05-21T07:04:43;16.10;;;8.45;;
55150;SDS011;41041;43.162;20.538;2023-05-21T07:07:09;18.63;;;7.85;;
55150;SDS011;41041;43.162;20.538;2023-05-21T07:09:35;14.38;;;7.45;;
55150;SDS011;41041;43.162;20.538;2023-05-21T07:12:01;15.38;;;7.72;;
55150;SDS011;41041;43.162;20.538;2023-05-21T07:14:27;16.67;;;6.78;;
55150;SDS011;41041;43.162;20.538;2023-05-21T07:16:54;15.07;;;6.25;;
55150;SDS011;41041;43.162;20.538;2023-05-21T07:19:20;11.52;;;7.10;;
55150;SDS011;41041;43.162;20.538;2023-05-21T07:21:47;14.70;;;6.90;;
55150;SDS011;41041;43.162;20.538;2023-05-21T07:27:17;15.60;;;7.30;;
55150;SDS011;41041;43.162;20.538;2023-05-21T07:29:46;11.60;;;7.15;;
55150;SDS011;41041;43.162;20.538;2023-05-21T07:32:12;20.90;;;7.05;;
55150;SDS011;41041;43.162;20.538;2023-05-21T07:34:38;15.80;;;8.68;;
55150;SDS011;41041;43.162;20.538;2023-05-21T07:37:04;21.60;;;13.63;;
55150;SDS011;41041;43.162;20.538;2023-05-21T07:39:31;25.23;;;7.78;;
55150;SDS011;41041;43.162;20.538;2023-05-21T07:41:57;14.43;;;7.75;;
55150;SDS011;41041;43.162;20.538;2023-05-21T07:44:33;19.27;;;5.97;;
55150;SDS011;41041;43.162;20.538;2023-05-21T07:46:59;12.38;;;5.78;;
55150;SDS011;41041;43.162;20.538;2023-05-21T07:49:26;8.75;;;5.80;;
55150;SDS011;41041;43.162;20.538;2023-05-21T07:54:22;20.27;;;6.43;;
55150;SDS011;41041;43.162;20.538;2023-05-21T07:57:01;18.88;;;8.90;;
55150;SDS011;41041;43.162;20.538;2023-05-21T08:02:31;12.43;;;7.97;;
55150;SDS011;41041;43.162;20.538;2023-05-21T08:04:57;13.02;;;5.90;;
55150;SDS011;41041;43.162;20.538;2023-05-21T08:07:26;10.95;;;4.40;;
55150;SDS011;41041;43.162;20.538;2023-05-21T08:12:45;8.20;;;4.22;;
55150;SDS011;41041;43.162;20.538;2023-05-21T08:15:12;10.15;;;4.13;;
55150;SDS011;41041;43.162;20.538;2023-05-21T08:20:30;6.18;;;3.70;;
55150;SDS011;41041;43.162;20.538;2023-05-21T08:22:57;8.85;;;3.50;;
55150;SDS011;41041;43.162;20.538;2023-05-21T08:25:26;7.13;;;3.72;;
55150;SDS011;41041;43.162;20.538;2023-05-21T08:28:13;7.65;;;3.55;;
55150;SDS011;41041;43.162;20.538;2023-05-21T08:30:39;9.00;;;3.70;;
55150;SDS011;41041;43.162;20.538;2023-05-21T08:33:05;11.90;;;7.22;;
55150;SDS011;41041;43.162;20.538;2023-05-21T08:35:31;10.13;;;3.38;;
55150;SDS011;41041;43.162;20.538;2023-05-21T08:37:58;11.25;;;4.20;;
55150;SDS011;41041;43.162;20.538;2023-05-21T08:40:24;14.13;;;3.83;;
55150;SDS011;41041;43.162;20.538;2023-05-21T08:42:50;11.60;;;2.90;;
55150;SDS011;41041;43.162;20.538;2023-05-21T08:45:19;9.02;;;2.97;;
55150;SDS011;41041;43.162;20.538;2023-05-21T08:47:46;10.18;;;3.42;;
55150;SDS011;41041;43.162;20.538;2023-05-21T08:50:13;7.20;;;2.92;;
55150;SDS011;41041;43.162;20.538;2023-05-21T08:52:42;7.07;;;3.00;;
55150;SDS011;41041;43.162;20.538;2023-05-21T08:55:09;6.47;;;2.80;;
55150;SDS011;41041;43.162;20.538;2023-05-21T08:57:35;8.68;;;2.80;;
55150;SDS011;41041;43.162;20.538;2023-05-21T09:00:02;12.48;;;3.10;;
55150;SDS011;41041;43.162;20.538;2023-05-21T09:02:32;5.68;;;2.95;;
55150;SDS011;41041;43.162;20.538;2023-05-21T09:04:58;7.93;;;3.35;;
55150;SDS011;41041;43.162;20.538;2023-05-21T09:07:27;7.95;;;2.80;;
55150;SDS011;41041;43.162;20.538;2023-05-21T09:10:03;10.00;;;2.90;;
55150;SDS011;41041;43.162;20.538;2023-05-21T09:12:37;10.50;;;2.90;;
55150;SDS011;41041;43.162;20.538;2023-05-21T09:15:06;11.30;;;2.88;;
55150;SDS011;41041;43.162;20.538;2023-05-21T09:17:37;5.50;;;2.67;;
55150;SDS011;41041;43.162;20.538;2023-05-21T09:22:47;8.20;;;2.75;;
55150;SDS011;41041;43.162;20.538;2023-05-21T09:32:17;8.10;;;3.05;;
55150;SDS011;41041;43.162;20.538;2023-05-21T09:34:46;7.53;;;2.83;;
55150;SDS011;41041;43.162;20.538;2023-05-21T09:40:38;13.10;;;2.80;;
55150;SDS011;41041;43.162;20.538;2023-05-21T09:46:24;10.27;;;3.67;;
55150;SDS011;41041;43.162;20.538;2023-05-21T09:48:51;8.73;;;3.08;;
55150;SDS011;41041;43.162;20.538;2023-05-21T09:51:18;13.32;;;3.60;;
55150;SDS011;41041;43.162;20.538;2023-05-21T09:53:48;13.23;;;4.18;;
55150;SDS011;41041;43.162;20.538;2023-05-21T09:56:21;7.95;;;3.15;;
55150;SDS011;41041;43.162;20.538;2023-05-21T09:58:50;7.78;;;2.88;;
55150;SDS011;41041;43.162;20.538;2023-05-21T10:01:18;10.10;;;2.72;;
55150;SDS011;41041;43.162;20.538;2023-05-21T10:03:46;9.02;;;4.07;;
55150;SDS011;41041;43.162;20.538;2023-05-21T10:06:13;24.20;;;18.40;;
55150;SDS011;41041;43.162;20.538;2023-05-21T10:08:40;10.70;;;3.30;;
55150;SDS011;41041;43.162;20.538;2023-05-21T10:14:28;13.82;;;4.80;;
55150;SDS011;41041;43.162;20.538;2023-05-21T10:16:57;7.30;;;3.40;;
55150;SDS011;41041;43.162;20.538;2023-05-21T10:19:23;11.13;;;3.00;;
55150;SDS011;41041;43.162;20.538;2023-05-21T10:21:54;10.82;;;2.75;;
55150;SDS011;41041;43.162;20.538;2023-05-21T10:24:21;8.40;;;3.03;;
55150;SDS011;41041;43.162;20.538;2023-05-21T10:26:47;7.97;;;3.30;;
55150;SDS011;41041;43.162;20.538;2023-05-21T10:29:25;22.55;;;7.60;;
55150;SDS011;41041;43.162;20.538;2023-05-21T10:31:51;9.15;;;4.30;;
55150;SDS011;41041;43.162;20.538;2023-05-21T10:34:17;9.90;;;3.90;;
55150;SDS011;41041;43.162;20.538;2023-05-21T10:39:13;8.95;;;3.50;;
55150;SDS011;41041;43.162;20.538;2023-05-21T10:41:45;5.93;;;2.72;;
55150;SDS011;41041;43.162;20.538;2023-05-21T10:47:46;7.30;;;3.05;;
55150;SDS011;41041;43.162;20.538;2023-05-21T10:52:36;8.05;;;2.72;;
55150;SDS011;41041;43.162;20.538;2023-05-21T10:57:43;20.40;;;4.82;;
55150;SDS011;41041;43.162;20.538;2023-05-21T11:00:12;7.50;;;3.05;;
55150;SDS011;41041;43.162;20.538;2023-05-21T11:02:40;10.38;;;3.05;;
55150;SDS011;41041;43.162;20.538;2023-05-21T11:05:07;6.82;;;2.80;;
55150;SDS011;41041;43.162;20.538;2023-05-21T11:07:49;9.15;;;3.30;;
55150;SDS011;41041;43.162;20.538;2023-05-21T11:16:44;6.68;;;2.95;;
55150;SDS011;41041;43.162;20.538;2023-05-21T11:19:17;10.07;;;3.25;;
55150;SDS011;41041;43.162;20.538;2023-05-21T11:21:43;8.45;;;3.03;;
55150;SDS011;41041;43.162;20.538;2023-05-21T11:24:17;7.80;;;3.15;;
55150;SDS011;41041;43.162;20.538;2023-05-21T11:29:14;8.23;;;3.47;;
55150;SDS011;41041;43.162;20.538;2023-05-21T11:31:58;11.18;;;3.50;;
55150;SDS011;41041;43.162;20.538;2023-05-21T11:34:40;5.05;;;3.55;;
55150;SDS011;41041;43.162;20.538;2023-05-21T11:37:25;8.68;;;3.30;;
55150;SDS011;41041;43.162;20.538;2023-05-21T11:39:54;11.60;;;3.42;;
55150;SDS011;41041;43.162;20.538;2023-05-21T11:42:30;5.50;;;3.05;;
55150;SDS011;41041;43.162;20.538;2023-05-21T11:44:58;12.30;;;3.13;;
55150;SDS011;41041;43.162;20.538;2023-05-21T11:47:26;6.03;;;3.20;;
55150;SDS011;41041;43.162;20.538;2023-05-21T11:49:53;5.85;;;3.17;;
55150;SDS011;41041;43.162;20.538;2023-05-21T11:52:21;6.32;;;2.95;;
55150;SDS011;41041;43.162;20.538;2023-05-21T11:54:51;10.00;;;3.10;;
55150;SDS011;41041;43.162;20.538;2023-05-21T11:57:21;7.63;;;3.90;;
55150;SDS011;41041;43.162;20.538;2023-05-21T11:59:54;8.15;;;3.35;;
55150;SDS011;41041;43.162;20.538;2023-05-21T12:02:23;11.45;;;3.60;;
55150;SDS011;41041;43.162;20.538;2023-05-21T12:04:52;9.30;;;3.30;;
55150;SDS011;41041;43.162;20.538;2023-05-21T12:07:18;8.15;;;3.60;;
55150;SDS011;41041;43.162;20.538;2023-05-21T12:09:45;6.60;;;3.95;;
55150;SDS011;41041;43.162;20.538;2023-05-21T12:12:23;5.65;;;3.45;;
55150;SDS011;41041;43.162;20.538;2023-05-21T12:14:50;8.70;;;3.72;;
55150;SDS011;41041;43.162;20.538;2023-05-21T12:17:18;8.55;;;5.07;;
55150;SDS011;41041;43.162;20.538;2023-05-21T12:22:18;6.82;;;3.20;;
55150;SDS011;41041;43.162;20.538;2023-05-21T12:24:44;9.75;;;3.60;;
55150;SDS011;41041;43.162;20.538;2023-05-21T12:27:11;8.88;;;3.20;;
55150;SDS011;41041;43.162;20.538;2023-05-21T12:29:41;5.65;;;3.17;;
55150;SDS011;41041;43.162;20.538;2023-05-21T12:32:09;7.00;;;3.30;;
55150;SDS011;41041;43.162;20.538;2023-05-21T12:37:24;7.65;;;3.25;;
55150;SDS011;41041;43.162;20.538;2023-05-21T12:39:54;9.68;;;3.38;;
55150;SDS011;41041;43.162;20.538;2023-05-21T12:42:24;10.15;;;4.05;;
55150;SDS011;41041;43.162;20.538;2023-05-21T12:47:45;7.22;;;3.60;;
55150;SDS011;41041;43.162;20.538;2023-05-21T12:50:13;7.82;;;3.65;;
55150;SDS011;41041;43.162;20.538;2023-05-21T12:52:43;14.97;;;3.90;;
55150;SDS011;41041;43.162;20.538;2023-05-21T12:55:12;6.05;;;3.35;;
55150;SDS011;41041;43.162;20.538;2023-05-21T12:57:38;7.75;;;4.38;;
55150;SDS011;41041;43.162;20.538;2023-05-21T13:00:05;12.23;;;3.63;;
55150;SDS011;41041;43.162;20.538;2023-05-21T13:02:37;12.13;;;3.55;;
55150;SDS011;41041;43.162;20.538;2023-05-21T13:05:04;10.77;;;4.05;;
55150;SDS011;41041;43.162;20.538;2023-05-21T13:07:31;9.00;;;3.35;;
55150;SDS011;41041;43.162;20.538;2023-05-21T13:12:56;5.70;;;3.03;;
55150;SDS011;41041;43.162;20.538;2023-05-21T13:15:22;5.28;;;3.38;;
55150;SDS011;41041;43.162;20.538;2023-05-21T13:17:48;9.25;;;3.70;;
55150;SDS011;41041;43.162;20.538;2023-05-21T13:20:15;11.32;;;3.80;;
55150;SDS011;41041;43.162;20.538;2023-05-21T13:22:45;8.02;;;3.67;;
55150;SDS011;41041;43.162;20.538;2023-05-21T13:25:11;7.85;;;3.53;;
55150;SDS011;41041;43.162;20.538;2023-05-21T13:30:08;8.90;;;3.78;;
55150;SDS011;41041;43.162;20.538;2023-05-21T13:32:40;9.35;;;3.20;;
55150;SDS011;41041;43.162;20.538;2023-05-21T13:37:33;7.90;;;3.83;;
55150;SDS011;41041;43.162;20.538;2023-05-21T13:42:34;7.93;;;3.88;;
55150;SDS011;41041;43.162;20.538;2023-05-21T13:45:02;9.68;;;4.70;;
55150;SDS011;41041;43.162;20.538;2023-05-21T13:47:29;11.82;;;3.90;;
55150;SDS011;41041;43.162;20.538;2023-05-21T13:49:55;13.85;;;4.20;;
55150;SDS011;41041;43.162;20.538;2023-05-21T13:52:21;10.02;;;4.10;;
55150;SDS011;41041;43.162;20.538;2023-05-21T13:55:01;9.10;;;3.90;;
55150;SDS011;41041;43.162;20.538;2023-05-21T13:57:27;13.65;;;3.92;;
55150;SDS011;41041;43.162;20.538;2023-05-21T13:59:54;5.78;;;3.13;;
55150;SDS011;41041;43.162;20.538;2023-05-21T14:02:33;7.20;;;3.40;;
55150;SDS011;41041;43.162;20.538;2023-05-21T14:04:59;7.95;;;3.80;;
55150;SDS011;41041;43.162;20.538;2023-05-21T14:07:25;7.03;;;4.20;;
55150;SDS011;41041;43.162;20.538;2023-05-21T14:09:51;8.95;;;3.33;;
55150;SDS011;41041;43.162;20.538;2023-05-21T14:12:17;6.43;;;3.78;;
55150;SDS011;41041;43.162;20.538;2023-05-21T14:14:43;9.07;;;3.78;;
55150;SDS011;41041;43.162;20.538;2023-05-21T14:17:09;7.03;;;3.80;;
55150;SDS011;41041;43.162;20.538;2023-05-21T14:19:35;9.98;;;3.80;;
55150;SDS011;41041;43.162;20.538;2023-05-21T14:22:00;11.95;;;3.80;;
55150;SDS011;41041;43.162;20.538;2023-05-21T14:24:26;8.27;;;3.50;;
55150;SDS011;41041;43.162;20.538;2023-05-21T14:26:57;6.90;;;3.53;;
55150;SDS011;41041;43.162;20.538;2023-05-21T14:29:23;7.85;;;3.47;;
55150;SDS011;41041;43.162;20.538;2023-05-21T14:34:37;8.55;;;3.70;;
55150;SDS011;41041;43.162;20.538;2023-05-21T14:37:06;12.77;;;4.00;;
55150;SDS011;41041;43.162;20.538;2023-05-21T14:42:56;7.68;;;3.47;;
55150;SDS011;41041;43.162;20.538;2023-05-21T14:45:22;8.15;;;3.55;;
55150;SDS011;41041;43.162;20.538;2023-05-21T14:47:48;9.43;;;3.40;;
55150;SDS011;41041;43.162;20.538;2023-05-21T14:50:14;11.23;;;3.50;;
55150;SDS011;41041;43.162;20.538;2023-05-21T14:52:41;6.60;;;3.47;;
55150;SDS011;41041;43.162;20.538;2023-05-21T14:55:07;7.30;;;4.18;;
55150;SDS011;41041;43.162;20.538;2023-05-21T14:57:33;7.63;;;3.00;;
55150;SDS011;41041;43.162;20.538;2023-05-21T14:59:59;6.40;;;3.70;;
55150;SDS011;41041;43.162;20.538;2023-05-21T15:02:26;10.05;;;3.97;;
55150;SDS011;41041;43.162;20.538;2023-05-21T15:04:51;9.73;;;3.03;;
55150;SDS011;41041;43.162;20.538;2023-05-21T15:07:17;7.88;;;4.25;;
55150;SDS011;41041;43.162;20.538;2023-05-21T15:09:43;14.18;;;3.60;;
55150;SDS011;41041;43.162;20.538;2023-05-21T15:12:09;7.47;;;3.40;;
55150;SDS011;41041;43.162;20.538;2023-05-21T15:14:35;10.15;;;5.00;;
55150;SDS011;41041;43.162;20.538;2023-05-21T15:17:00;14.77;;;6.63;;
55150;SDS011;41041;43.162;20.538;2023-05-21T15:22:34;12.38;;;3.88;;
55150;SDS011;41041;43.162;20.538;2023-05-21T15:25:02;20.50;;;8.70;;
55150;SDS011;41041;43.162;20.538;2023-05-21T15:27:29;9.65;;;4.68;;
55150;SDS011;41041;43.162;20.538;2023-05-21T15:29:55;10.57;;;3.67;;
55150;SDS011;41041;43.162;20.538;2023-05-21T15:32:21;8.20;;;4.00;;
55150;SDS011;41041;43.162;20.538;2023-05-21T15:34:47;9.07;;;4.35;;
55150;SDS011;41041;43.162;20.538;2023-05-21T15:37:16;6.32;;;3.55;;
55150;SDS011;41041;43.162;20.538;2023-05-21T15:39:42;11.43;;;3.28;;
55150;SDS011;41041;43.162;20.538;2023-05-21T15:42:09;10.75;;;4.38;;
55150;SDS011;41041;43.162;20.538;2023-05-21T15:44:36;6.82;;;3.60;;
55150;SDS011;41041;43.162;20.538;2023-05-21T15:47:02;6.28;;;3.30;;
55150;SDS011;41041;43.162;20.538;2023-05-21T15:49:42;9.90;;;3.20;;
55150;SDS011;41041;43.162;20.538;2023-05-21T15:52:08;4.75;;;3.33;;
55150;SDS011;41041;43.162;20.538;2023-05-21T15:54:35;6.05;;;3.10;;
55150;SDS011;41041;43.162;20.538;2023-05-21T15:57:01;7.55;;;3.10;;
55150;SDS011;41041;43.162;20.538;2023-05-21T15:59:27;6.40;;;3.08;;
55150;SDS011;41041;43.162;20.538;2023-05-21T16:01:54;6.88;;;3.30;;
55150;SDS011;41041;43.162;20.538;2023-05-21T16:04:20;10.13;;;3.20;;
55150;SDS011;41041;43.162;20.538;2023-05-21T16:09:52;8.95;;;3.55;;
55150;SDS011;41041;43.162;20.538;2023-05-21T16:12:18;8.45;;;3.00;;
55150;SDS011;41041;43.162;20.538;2023-05-21T16:14:45;10.00;;;3.58;;
55150;SDS011;41041;43.162;20.538;2023-05-21T16:17:13;9.20;;;3.38;;
55150;SDS011;41041;43.162;20.538;2023-05-21T16:19:39;7.30;;;3.13;;
55150;SDS011;41041;43.162;20.538;2023-05-21T16:22:05;7.25;;;3.67;;
55150;SDS011;41041;43.162;20.538;2023-05-21T16:24:31;9.50;;;3.38;;
55150;SDS011;41041;43.162;20.538;2023-05-21T16:26:56;7.07;;;3.28;;